Time;durP1;ratioP1;P1;durP2;ratioP2;P2;SDS_P1;SDS_P2;PMS_P1;PMS_P2;Temp;Humidity;BMP_temperature;BMP_pressure;BME280_temperature;BME280_humidity;BME280_pressure;Samples;Min_cycle;Max_cycle;Signal;HPM_P1;HPM_P2
2023/06/16 00:01:38;;;;;;;4.30;3.90;;;26.00;34.70;26.50;100983.00;;;;5030361;28;20768;-56
2023/06/16 00:04:04;;;;;;;4.95;3.90;;;26.00;34.80;26.50;100984.00;;;;5039905;28;20179;-56
2023/06/16 00:06:30;;;;;;;6.43;4.30;;;26.00;34.90;26.50;100974.00;;;;5034556;28;20253;-54
2023/06/16 00:08:58;;;;;;;4.28;3.85;;;26.00;35.00;26.50;100976.00;;;;5032225;28;20179;-55
2023/06/16 00:11:25;;;;;;;5.55;4.63;;;26.00;35.00;26.50;100976.00;;;;5032480;28;20301;-55
2023/06/16 00:13:51;;;;;;;5.50;4.10;;;25.90;35.00;26.40;100976.00;;;;5032010;28;20181;-54
2023/06/16 00:16:20;;;;;;;5.38;3.90;;;25.90;35.10;26.40;100976.00;;;;5031989;28;20198;-55
2023/06/16 00:18:51;;;;;;;4.45;3.95;;;25.90;35.10;26.40;100979.00;;;;5034222;28;20171;-54
2023/06/16 00:21:35;;;;;;;4.88;4.03;;;25.90;35.20;26.40;100977.00;;;;5033161;28;20182;-54
2023/06/16 00:24:01;;;;;;;5.32;4.10;;;25.90;35.20;26.30;100976.00;;;;5031331;28;20186;-55
2023/06/16 00:26:27;;;;;;;4.00;3.70;;;25.80;35.20;26.30;100975.00;;;;5030795;28;20218;-54
2023/06/16 00:28:53;;;;;;;4.72;3.80;;;25.80;35.20;26.30;100981.00;;;;5029055;28;20756;-54
2023/06/16 00:31:18;;;;;;;3.80;3.50;;;25.80;35.30;26.30;100977.00;;;;5030225;28;20289;-54
2023/06/16 00:33:44;;;;;;;5.07;3.90;;;25.80;35.30;26.20;100973.00;;;;5030042;28;20277;-54
2023/06/16 00:36:10;;;;;;;4.20;3.80;;;25.80;35.30;26.20;100972.00;;;;5029792;28;20253;-54
2023/06/16 00:38:37;;;;;;;5.05;3.67;;;25.70;35.20;26.20;100976.00;;;;5030865;28;20313;-54
2023/06/16 00:41:02;;;;;;;4.90;3.70;;;25.70;35.30;26.20;100972.00;;;;5030447;28;20163;-55
2023/06/16 00:43:28;;;;;;;4.00;3.60;;;25.70;35.30;26.10;100969.00;;;;5030059;28;20673;-55
2023/06/16 00:45:54;;;;;;;4.18;3.67;;;25.70;35.40;26.10;100967.00;;;;5028099;28;20202;-54
2023/06/16 00:48:20;;;;;;;4.32;3.90;;;25.70;35.40;26.10;100961.00;;;;5029611;28;20171;-55
2023/06/16 00:50:45;;;;;;;3.88;3.50;;;25.60;35.40;26.10;100964.00;;;;5028116;28;20232;-54
2023/06/16 00:53:11;;;;;;;5.47;3.78;;;25.60;35.50;26.00;100956.00;;;;5028184;28;20194;-55
2023/06/16 00:55:37;;;;;;;4.28;3.78;;;25.50;35.40;26.00;100959.00;;;;5029113;28;20253;-54
2023/06/16 00:58:03;;;;;;;5.63;4.10;;;25.50;35.40;26.00;100961.00;;;;5028222;28;20171;-55
2023/06/16 01:00:32;;;;;;;4.95;4.00;;;25.50;35.50;26.00;100958.00;;;;5029326;28;20186;-55
2023/06/16 01:02:57;;;;;;;4.95;4.05;;;25.50;35.60;25.90;100965.00;;;;5029010;28;20198;-54
2023/06/16 01:05:24;;;;;;;4.30;3.90;;;25.50;35.70;25.90;100963.00;;;;5029105;28;20864;-54
2023/06/16 01:08:20;;;;;;;4.18;3.78;;;25.50;35.60;25.90;100961.00;;;;5028327;28;20209;-55
2023/06/16 01:11:00;;;;;;;4.05;3.70;;;25.50;35.70;25.90;100960.00;;;;5012286;28;20190;-54
2023/06/16 01:13:55;;;;;;;7.20;4.28;;;25.50;35.80;25.90;100962.00;;;;5028490;28;20182;-54
2023/06/16 01:16:28;;;;;;;4.10;3.70;;;25.50;35.90;25.80;100946.00;;;;5030332;28;20218;-55
2023/06/16 01:18:54;;;;;;;5.78;3.80;;;25.40;35.90;25.80;100959.00;;;;4996516;28;20163;-54
2023/06/16 01:21:37;;;;;;;4.95;3.85;;;25.40;36.00;25.80;100964.00;;;;5028274;28;20638;-55
2023/06/16 01:24:12;;;;;;;5.43;4.30;;;25.40;36.10;25.70;100966.00;;;;5028198;28;20596;-54
2023/06/16 01:26:40;;;;;;;4.20;3.75;;;25.40;36.20;25.70;100954.00;;;;5029150;28;20195;-56
2023/06/16 01:29:08;;;;;;;5.07;3.97;;;25.40;36.50;25.70;100961.00;;;;5029334;28;20187;-55
2023/06/16 01:31:34;;;;;;;4.18;3.88;;;25.30;36.40;25.70;100959.00;;;;5012226;28;20198;-54
2023/06/16 01:34:00;;;;;;;4.35;3.95;;;25.30;36.40;25.60;100958.00;;;;5015484;28;20669;-53
2023/06/16 01:36:30;;;;;;;4.68;3.88;;;25.30;36.40;25.60;100957.00;;;;5016033;28;20234;-55
2023/06/16 01:38:56;;;;;;;4.10;3.80;;;25.30;36.40;25.60;100966.00;;;;4998039;28;20167;-55
2023/06/16 01:41:21;;;;;;;4.25;3.83;;;25.20;36.30;25.60;100964.00;;;;5031880;28;20174;-55
2023/06/16 01:43:47;;;;;;;4.65;3.88;;;25.20;36.30;25.60;100949.00;;;;5032919;28;20179;-54
2023/06/16 01:46:13;;;;;;;4.55;4.00;;;25.20;36.50;25.50;100956.00;;;;4998799;28;20190;-56
2023/06/16 01:48:39;;;;;;;9.57;3.97;;;25.20;36.60;25.50;100954.00;;;;4998687;28;20171;-55
2023/06/16 01:51:05;;;;;;;3.90;3.50;;;25.20;36.60;25.50;100937.00;;;;5032459;28;20182;-55
2023/06/16 01:53:30;;;;;;;4.47;3.97;;;25.20;36.70;25.50;100958.00;;;;5031268;28;20179;-55
2023/06/16 01:55:56;;;;;;;5.43;4.03;;;25.20;37.00;25.50;100958.00;;;;5032085;28;20238;-54
2023/06/16 01:58:24;;;;;;;4.63;4.22;;;25.20;37.70;25.40;100961.00;;;;5032299;28;20535;-54
2023/06/16 02:00:57;;;;;;;5.57;4.07;;;25.20;38.10;25.40;100959.00;;;;5030976;28;20171;-55
2023/06/16 02:03:35;;;;;;;5.15;4.53;;;25.20;38.40;25.30;100964.00;;;;5017423;28;20178;-55
2023/06/16 02:06:04;;;;;;;4.30;3.90;;;25.20;38.60;25.30;100968.00;;;;5001585;28;20198;-55
2023/06/16 02:08:30;;;;;;;4.50;4.10;;;25.20;38.80;25.30;100960.00;;;;5033269;28;20179;-54
2023/06/16 02:10:56;;;;;;;4.40;4.03;;;25.20;38.90;25.30;100974.00;;;;4999370;28;20245;-55
2023/06/16 02:13:21;;;;;;;4.53;4.10;;;25.10;38.90;25.30;100982.00;;;;5031587;28;20186;-54
2023/06/16 02:15:47;;;;;;;4.40;4.00;;;25.00;38.90;25.20;100978.00;;;;5016292;28;20577;-55
2023/06/16 02:18:13;;;;;;;4.40;4.00;;;25.00;38.90;25.20;100979.00;;;;5035001;28;20798;-54
2023/06/16 02:20:39;;;;;;;4.63;4.07;;;25.00;39.00;25.20;100980.00;;;;5035825;28;20178;-54
2023/06/16 02:23:04;;;;;;;4.40;4.00;;;25.00;39.10;25.20;100985.00;;;;5033291;28;20167;-54
2023/06/16 02:25:30;;;;;;;4.40;4.00;;;25.00;39.20;25.20;100985.00;;;;5033276;28;20273;-54
2023/06/16 02:27:56;;;;;;;4.57;3.95;;;25.00;39.20;25.10;100987.00;;;;5032253;28;20179;-55
2023/06/16 02:30:22;;;;;;;4.37;4.00;;;25.00;39.30;25.10;100985.00;;;;5020914;28;20245;-55
2023/06/16 02:32:48;;;;;;;4.63;4.22;;;24.90;39.40;25.10;100978.00;;;;5026462;28;20199;-56
2023/06/16 02:35:14;;;;;;;4.30;4.00;;;24.90;39.40;25.10;100983.00;;;;5010810;28;20196;-55
2023/06/16 02:37:41;;;;;;;5.63;4.57;;;24.90;39.40;25.10;100975.00;;;;5011459;28;20174;-55
2023/06/16 02:40:08;;;;;;;4.22;3.92;;;24.90;39.50;25.10;100970.00;;;;5011307;28;20234;-54
2023/06/16 02:42:33;;;;;;;5.07;4.30;;;24.90;39.40;25.00;100973.00;;;;5011316;28;20412;-57
2023/06/16 02:44:59;;;;;;;4.77;4.10;;;24.90;39.40;25.00;100979.00;;;;5010072;28;20236;-54
2023/06/16 02:47:25;;;;;;;5.13;4.63;;;24.90;39.50;25.00;100978.00;;;;5011077;28;20182;-54
2023/06/16 02:49:52;;;;;;;4.60;4.20;;;24.90;39.70;25.00;100969.00;;;;5010935;28;20262;-55
2023/06/16 02:52:18;;;;;;;4.67;4.07;;;24.80;39.80;25.00;100977.00;;;;5011177;28;20179;-54
2023/06/16 02:54:43;;;;;;;4.27;3.90;;;24.80;39.90;24.90;100977.00;;;;5010985;28;20179;-55
2023/06/16 02:57:09;;;;;;;4.23;3.80;;;24.80;40.10;24.90;100982.00;;;;5026296;28;20203;-54
2023/06/16 02:59:35;;;;;;;4.87;4.43;;;24.80;40.10;24.90;100973.00;;;;5010799;28;20523;-54
2023/06/16 03:02:01;;;;;;;4.57;4.17;;;24.70;40.10;24.90;100972.00;;;;5011101;28;20184;-54
2023/06/16 03:04:27;;;;;;;4.47;4.10;;;24.80;40.20;24.90;100967.00;;;;5009617;28;20225;-54
2023/06/16 03:06:58;;;;;;;4.23;3.90;;;24.70;40.20;24.90;100970.00;;;;5011098;28;20270;-55
2023/06/16 03:09:27;;;;;;;4.20;3.90;;;24.70;40.30;24.80;100985.00;;;;5011074;28;20682;-54
2023/06/16 03:11:55;;;;;;;6.37;4.03;;;24.70;40.30;24.80;100969.00;;;;5010282;28;20182;-55
2023/06/16 03:14:21;;;;;;;5.07;4.00;;;24.70;40.50;24.80;100981.00;;;;5013737;28;20214;-56
2023/06/16 03:16:48;;;;;;;4.47;3.90;;;24.70;40.50;24.80;100980.00;;;;5030462;28;20466;-55
2023/06/16 03:19:15;;;;;;;4.30;3.90;;;24.70;40.50;24.80;100985.00;;;;5030571;28;20175;-55
2023/06/16 03:21:42;;;;;;;4.30;4.00;;;24.60;40.50;24.70;100985.00;;;;5030124;28;20258;-54
2023/06/16 03:24:08;;;;;;;4.20;3.80;;;24.70;40.60;24.70;100980.00;;;;5030401;28;20531;-54
2023/06/16 03:26:35;;;;;;;5.37;4.10;;;24.60;40.50;24.70;100985.00;;;;5030138;28;20205;-55
2023/06/16 03:29:00;;;;;;;4.80;4.40;;;24.60;40.50;24.70;100976.00;;;;5030528;28;20183;-55
2023/06/16 03:31:27;;;;;;;4.40;4.00;;;24.60;40.60;24.70;100980.00;;;;5029885;28;20313;-54
2023/06/16 03:33:52;;;;;;;6.80;4.20;;;24.60;40.60;24.70;100978.00;;;;5029896;28;20180;-55
2023/06/16 03:36:18;;;;;;;4.23;3.83;;;24.60;40.70;24.70;100977.00;;;;5028850;28;20808;-56
2023/06/16 03:38:44;;;;;;;4.40;4.00;;;24.60;40.80;24.60;100971.00;;;;5028781;28;20714;-56
2023/06/16 03:41:10;;;;;;;5.27;4.87;;;24.50;40.80;24.60;100968.00;;;;5019594;28;20552;-54
2023/06/16 03:43:36;;;;;;;5.63;4.60;;;24.50;40.90;24.60;100976.00;;;;5025749;28;20274;-55
2023/06/16 03:46:02;;;;;;;5.70;4.90;;;24.50;41.00;24.60;100981.00;;;;5009764;28;20669;-55
2023/06/16 03:48:27;;;;;;;5.73;4.60;;;24.40;41.00;24.50;100978.00;;;;5010320;28;20178;-56
2023/06/16 03:50:53;;;;;;;4.67;4.27;;;24.40;41.20;24.50;100986.00;;;;5009823;28;20605;-55
2023/06/16 03:53:20;;;;;;;5.00;4.60;;;24.40;41.20;24.50;100979.00;;;;5008993;28;20642;-55
2023/06/16 03:55:47;;;;;;;5.10;4.60;;;24.40;41.40;24.50;100985.00;;;;5010497;28;20261;-57
2023/06/16 03:58:15;;;;;;;4.40;4.00;;;24.40;41.50;24.50;100981.00;;;;5010778;28;20176;-55
2023/06/16 04:00:43;;;;;;;4.30;4.00;;;24.30;41.40;24.40;100991.00;;;;5011025;28;20655;-55
2023/06/16 04:03:10;;;;;;;4.70;4.20;;;24.40;41.50;24.40;100990.00;;;;5013195;28;20202;-55
2023/06/16 04:05:35;;;;;;;4.70;4.30;;;24.30;41.50;24.20;100987.00;;;;5025435;28;20198;-55
2023/06/16 04:08:01;;;;;;;4.30;3.93;;;24.30;41.50;24.40;100988.00;;;;5031515;28;20201;-55
2023/06/16 04:10:27;;;;;;;4.90;4.40;;;24.30;41.70;24.40;100991.00;;;;5029120;28;20804;-56
2023/06/16 04:12:53;;;;;;;4.77;4.37;;;24.30;41.80;24.30;100991.00;;;;5031524;28;20179;-56
2023/06/16 04:15:19;;;;;;;5.00;4.50;;;24.30;41.80;24.30;100990.00;;;;5030974;28;20210;-56
2023/06/16 04:17:45;;;;;;;4.57;4.10;;;24.30;41.80;24.30;100998.00;;;;5035393;28;20203;-54
2023/06/16 04:20:12;;;;;;;4.70;4.30;;;24.20;41.80;24.30;100989.00;;;;5030412;28;20171;-56
2023/06/16 04:22:38;;;;;;;4.93;4.40;;;24.20;41.90;24.30;100990.00;;;;5029868;28;20167;-55
2023/06/16 04:25:05;;;;;;;4.60;4.20;;;24.20;42.20;24.30;100990.00;;;;5028446;28;20195;-56
2023/06/16 04:27:32;;;;;;;5.40;4.60;;;24.20;42.30;24.20;100994.00;;;;5029468;28;20187;-54
2023/06/16 04:29:58;;;;;;;6.13;4.30;;;24.10;42.30;24.20;100986.00;;;;5029407;28;20171;-56
2023/06/16 04:32:23;;;;;;;4.80;4.23;;;24.20;42.50;24.20;100992.00;;;;5029514;28;20166;-56
2023/06/16 04:34:49;;;;;;;4.20;3.90;;;24.10;42.50;24.20;100995.00;;;;5028543;28;20258;-55
2023/06/16 04:37:16;;;;;;;5.03;4.40;;;24.10;42.60;24.10;100984.00;;;;5029647;28;20260;-55
2023/06/16 04:39:42;;;;;;;5.23;4.50;;;24.10;42.70;24.10;100985.00;;;;5012345;28;20261;-56
2023/06/16 04:42:09;;;;;;;6.13;4.43;;;24.10;42.90;24.10;100989.00;;;;5010809;28;20589;-56
2023/06/16 04:44:36;;;;;;;5.07;4.60;;;24.10;43.00;24.10;100994.00;;;;5028538;28;20559;-55
2023/06/16 04:47:02;;;;;;;4.63;4.23;;;24.00;42.90;24.00;100990.00;;;;5030038;28;20290;-56
2023/06/16 04:49:28;;;;;;;5.30;4.20;;;24.00;43.40;24.00;100990.00;;;;5029932;28;20171;-55
2023/06/16 04:51:56;;;;;;;4.53;4.20;;;24.00;42.70;24.00;100987.00;;;;5029820;28;20166;-56
2023/06/16 04:54:22;;;;;;;5.00;4.50;;;24.00;42.80;24.00;100990.00;;;;5028322;28;20249;-54
2023/06/16 04:56:48;;;;;;;4.47;4.07;;;24.00;43.00;24.00;100984.00;;;;5028830;28;20700;-56
2023/06/16 04:59:13;;;;;;;4.67;4.20;;;24.00;42.60;24.00;100985.00;;;;5029179;28;20170;-54
2023/06/16 05:01:39;;;;;;;4.60;4.20;;;24.00;42.40;24.00;100983.00;;;;5029298;28;20166;-54
2023/06/16 05:04:05;;;;;;;5.23;4.30;;;24.00;42.40;24.00;100983.00;;;;5027099;28;20175;-55
2023/06/16 05:06:34;;;;;;;4.80;4.40;;;24.00;43.00;24.10;100984.00;;;;5029512;28;20201;-58
2023/06/16 05:08:59;;;;;;;5.23;4.40;;;24.00;43.00;24.10;100988.00;;;;5028592;28;20167;-55
2023/06/16 05:11:25;;;;;;;5.93;4.20;;;24.00;43.00;24.10;100983.00;;;;5029476;28;20175;-58
2023/06/16 05:13:51;;;;;;;4.30;3.90;;;24.00;43.00;24.10;100983.00;;;;5032628;28;20179;-56
2023/06/16 05:16:17;;;;;;;4.40;4.00;;;24.00;42.80;24.10;100975.00;;;;5031351;28;20222;-56
2023/06/16 05:18:42;;;;;;;4.73;3.97;;;24.00;42.50;24.10;100983.00;;;;5033742;28;20538;-56
2023/06/16 05:21:08;;;;;;;5.20;4.27;;;24.00;42.30;24.00;100980.00;;;;5033213;28;20167;-56
2023/06/16 05:23:36;;;;;;;4.93;4.43;;;24.00;42.30;24.00;100990.00;;;;5032527;28;20656;-56
2023/06/16 05:26:02;;;;;;;4.67;4.10;;;23.90;42.20;24.00;100986.00;;;;5031766;28;20198;-56
2023/06/16 05:28:28;;;;;;;4.90;4.40;;;23.90;42.40;24.00;100981.00;;;;5033030;28;20167;-56
2023/06/16 05:30:53;;;;;;;4.70;4.30;;;23.80;42.20;24.00;100984.00;;;;5033197;28;20175;-54
2023/06/16 05:33:19;;;;;;;4.97;4.47;;;23.90;42.40;24.00;100991.00;;;;5032322;28;20547;-56
2023/06/16 05:35:45;;;;;;;4.63;4.23;;;23.90;42.70;24.00;100986.00;;;;5031875;28;20211;-55
2023/06/16 05:38:10;;;;;;;4.40;4.00;;;23.90;43.00;24.00;100990.00;;;;5032905;28;20167;-55
2023/06/16 05:40:36;;;;;;;4.63;4.23;;;23.90;42.90;24.00;100990.00;;;;5032166;28;20167;-55
2023/06/16 05:43:02;;;;;;;5.47;4.23;;;23.90;42.80;24.00;100992.00;;;;5032595;28;20661;-55
2023/06/16 05:45:28;;;;;;;4.83;4.30;;;23.90;42.70;24.00;100985.00;;;;5031511;28;20278;-55
2023/06/16 05:47:53;;;;;;;6.30;4.40;;;23.80;42.20;24.00;101001.00;;;;5032641;28;20214;-55
2023/06/16 05:50:19;;;;;;;4.97;4.27;;;23.90;42.40;24.00;100997.00;;;;5031262;28;20269;-55
2023/06/16 05:52:45;;;;;;;4.17;3.77;;;23.80;42.10;24.00;101001.00;;;;5032040;28;20225;-57
2023/06/16 05:55:11;;;;;;;4.80;4.30;;;23.80;42.10;24.00;100998.00;;;;5029758;28;20743;-55
2023/06/16 05:57:37;;;;;;;4.90;4.40;;;23.80;42.10;24.00;100999.00;;;;5032107;28;20202;-58
2023/06/16 06:00:05;;;;;;;4.43;4.03;;;23.80;42.10;24.00;100994.00;;;;5032382;28;20167;-59
2023/06/16 06:02:31;;;;;;;4.53;4.17;;;23.80;42.30;24.00;100993.00;;;;5044222;28;20275;-54
2023/06/16 06:04:56;;;;;;;4.53;4.10;;;23.80;42.50;23.90;100998.00;;;;5035229;28;20677;-56
2023/06/16 06:07:22;;;;;;;5.40;4.40;;;23.80;42.60;23.90;101012.00;;;;5033427;28;20541;-55
2023/06/16 06:09:48;;;;;;;5.00;4.20;;;23.80;42.90;23.90;101006.00;;;;5032542;28;20175;-57
2023/06/16 06:12:13;;;;;;;4.37;3.97;;;23.80;42.60;23.90;100997.00;;;;5033545;28;20179;-54
2023/06/16 06:14:39;;;;;;;6.47;4.43;;;23.80;42.60;23.90;101009.00;;;;5033277;28;20175;-55
2023/06/16 06:17:05;;;;;;;5.03;4.20;;;23.80;42.70;23.90;101007.00;;;;5034125;28;20296;-58
2023/06/16 06:19:31;;;;;;;4.47;3.97;;;23.80;42.70;23.90;101008.00;;;;5042313;28;20179;-55
2023/06/16 06:21:56;;;;;;;6.23;4.53;;;23.80;42.60;23.90;101021.00;;;;5039729;28;20179;-57
2023/06/16 06:24:22;;;;;;;5.00;4.50;;;23.80;42.70;23.90;101018.00;;;;5030568;28;20167;-59
2023/06/16 06:26:48;;;;;;;5.17;4.37;;;23.80;42.80;23.90;101021.00;;;;5031942;28;20202;-56
2023/06/16 06:29:16;;;;;;;6.37;4.43;;;23.80;42.90;23.90;101024.00;;;;5031747;28;20240;-56
2023/06/16 06:31:42;;;;;;;6.70;4.20;;;23.80;43.30;23.90;101024.00;;;;5031850;28;20221;-55
2023/06/16 06:34:08;;;;;;;5.53;4.53;;;23.80;43.20;23.90;101034.00;;;;5029822;28;20187;-55
2023/06/16 06:36:34;;;;;;;4.97;4.40;;;23.80;42.90;23.90;101034.00;;;;5030703;28;20211;-57
2023/06/16 06:39:00;;;;;;;4.27;3.87;;;23.70;42.80;23.80;101036.00;;;;5031578;28;20170;-57
2023/06/16 06:41:26;;;;;;;4.53;4.10;;;23.70;42.80;23.90;101036.00;;;;5030386;28;20182;-56
2023/06/16 06:43:52;;;;;;;4.30;3.80;;;23.70;42.80;23.80;101042.00;;;;5031455;28;20212;-55
2023/06/16 06:46:18;;;;;;;4.37;3.97;;;23.70;42.90;23.80;101043.00;;;;5031212;28;20281;-56
2023/06/16 06:48:44;;;;;;;4.33;3.93;;;23.70;42.90;23.80;101050.00;;;;5015718;28;20263;-54
2023/06/16 06:51:12;;;;;;;3.90;3.60;;;23.70;43.00;23.80;101041.00;;;;5025645;28;20545;-55
2023/06/16 06:53:37;;;;;;;4.00;3.60;;;23.70;42.90;23.80;101038.00;;;;5030662;28;20183;-56
2023/06/16 06:56:03;;;;;;;4.00;3.67;;;23.60;42.90;23.80;101051.00;;;;5030830;28;20346;-56
2023/06/16 06:58:29;;;;;;;4.10;3.70;;;23.60;42.80;23.80;101052.00;;;;5028727;28;20178;-56
2023/06/16 07:00:55;;;;;;;4.23;3.83;;;23.60;42.90;23.80;101046.00;;;;5031587;28;20236;-55
2023/06/16 07:03:21;;;;;;;4.10;3.77;;;23.70;43.10;23.80;101053.00;;;;5030909;28;20187;-55
2023/06/16 07:05:46;;;;;;;4.60;4.10;;;23.60;42.80;23.70;101058.00;;;;5030882;28;20213;-56
2023/06/16 07:08:12;;;;;;;3.87;3.47;;;23.60;43.20;23.70;101055.00;;;;5030943;28;20550;-54
2023/06/16 07:10:38;;;;;;;3.90;3.60;;;23.60;43.00;23.70;101057.00;;;;5031026;28;20182;-54
2023/06/16 07:13:06;;;;;;;4.20;3.90;;;23.60;43.00;23.70;101063.00;;;;5031017;28;20711;-55
2023/06/16 07:15:32;;;;;;;3.90;3.60;;;23.60;43.00;23.70;101066.00;;;;5017233;28;20214;-56
2023/06/16 07:17:57;;;;;;;4.13;3.73;;;23.50;43.10;23.80;101049.00;;;;5009598;28;20176;-56
2023/06/16 07:20:23;;;;;;;4.53;3.73;;;23.50;43.60;23.80;101061.00;;;;5009799;28;20259;-54
2023/06/16 07:22:49;;;;;;;3.97;3.60;;;23.50;44.00;23.80;101065.00;;;;5001659;28;20204;-55
2023/06/16 07:25:17;;;;;;;5.53;3.80;;;23.50;44.00;23.80;101065.00;;;;5010067;28;20175;-55
2023/06/16 07:27:43;;;;;;;4.67;4.27;;;23.50;44.60;23.80;101065.00;;;;5022828;28;20274;-55
2023/06/16 07:30:10;;;;;;;5.13;3.90;;;23.50;44.20;23.80;101060.00;;;;5021420;28;20268;-55
2023/06/16 07:32:36;;;;;;;4.70;3.63;;;23.60;44.20;23.80;101066.00;;;;5017982;28;20183;-55
2023/06/16 07:35:03;;;;;;;5.63;4.10;;;23.50;44.90;23.90;101071.00;;;;5019584;28;20191;-56
2023/06/16 07:37:28;;;;;;;5.90;4.20;;;23.50;45.00;23.90;101059.00;;;;5009496;28;20673;-56
2023/06/16 07:39:54;;;;;;;4.37;3.97;;;23.50;46.20;23.90;101069.00;;;;5026993;28;20183;-55
2023/06/16 07:42:20;;;;;;;4.47;3.77;;;23.50;45.40;23.90;101070.00;;;;4979772;28;20646;-55
2023/06/16 07:44:47;;;;;;;4.47;4.07;;;23.50;45.10;23.90;101070.00;;;;5011791;28;20174;-55
2023/06/16 07:47:13;;;;;;;4.73;3.83;;;23.50;45.10;24.00;101060.00;;;;4995004;28;20221;-55
2023/06/16 07:49:39;;;;;;;4.30;3.73;;;23.50;45.10;24.00;101083.00;;;;5010499;28;20784;-55
2023/06/16 07:52:05;;;;;;;4.30;4.00;;;23.50;44.80;23.90;101055.00;;;;5027752;28;20175;-55
2023/06/16 07:54:31;;;;;;;5.00;4.20;;;23.50;44.70;23.90;101061.00;;;;5028336;28;20193;-54
2023/06/16 07:56:56;;;;;;;4.90;3.90;;;23.50;44.60;23.80;101047.00;;;;5028615;28;20207;-54
2023/06/16 07:59:22;;;;;;;4.67;3.90;;;23.40;44.80;23.90;101056.00;;;;5010616;28;20206;-54
2023/06/16 08:01:48;;;;;;;4.30;3.93;;;23.50;45.00;23.90;101058.00;;;;5026134;28;20181;-54
2023/06/16 08:04:14;;;;;;;4.60;4.20;;;23.40;45.20;23.70;101049.00;;;;5033999;28;20179;-54
2023/06/16 08:06:40;;;;;;;4.43;3.93;;;23.50;45.20;24.00;101053.00;;;;5023177;28;20206;-55
2023/06/16 08:09:08;;;;;;;4.30;3.87;;;23.50;45.10;24.00;101060.00;;;;5026202;28;20174;-55
2023/06/16 08:11:35;;;;;;;4.40;4.00;;;23.60;45.00;24.00;101048.00;;;;5012879;28;20609;-56
2023/06/16 08:14:01;;;;;;;4.90;3.90;;;23.60;45.10;24.00;101045.00;;;;5027706;28;20171;-55
2023/06/16 08:16:27;;;;;;;4.47;4.07;;;23.60;45.00;24.00;101046.00;;;;5020295;28;20328;-55
2023/06/16 08:18:56;;;;;;;4.10;3.70;;;23.50;45.00;24.10;101042.00;;;;5012169;28;20289;-58
2023/06/16 08:21:22;;;;;;;4.13;3.73;;;23.50;44.60;24.10;101046.00;;;;5037806;28;20199;-56
2023/06/16 08:23:48;;;;;;;4.37;3.90;;;23.60;44.90;24.10;101050.00;;;;5024383;28;20202;-56
2023/06/16 08:26:14;;;;;;;4.37;3.73;;;23.60;44.80;24.10;101069.00;;;;5021316;28;20199;-55
2023/06/16 08:28:40;;;;;;;4.43;4.03;;;23.70;44.40;24.10;101042.00;;;;5016753;28;20217;-55
2023/06/16 08:31:05;;;;;;;4.13;3.70;;;23.60;44.10;24.10;101035.00;;;;5028062;28;20199;-55
2023/06/16 08:33:32;;;;;;;6.37;3.80;;;23.60;44.10;24.10;101042.00;;;;5019233;28;21330;-56
2023/06/16 08:35:57;;;;;;;4.20;3.80;;;23.60;43.60;24.20;101034.00;;;;5023605;28;20221;-54
2023/06/16 08:38:23;;;;;;;4.50;4.10;;;23.70;43.80;24.20;101034.00;;;;5021286;28;20179;-56
2023/06/16 08:40:49;;;;;;;3.97;3.67;;;23.70;43.10;24.20;101032.00;;;;5028469;28;20178;-56
2023/06/16 08:43:15;;;;;;;4.17;3.87;;;23.70;42.80;24.20;101037.00;;;;5007077;28;20275;-54
2023/06/16 08:45:41;;;;;;;4.13;3.73;;;23.70;42.50;24.20;101033.00;;;;4991514;28;20673;-55
2023/06/16 08:48:06;;;;;;;3.70;3.40;;;23.70;42.60;24.20;101021.00;;;;5025609;28;20195;-56
2023/06/16 08:50:32;;;;;;;4.27;3.90;;;23.70;42.90;24.30;101022.00;;;;5025391;28;20178;-54
2023/06/16 08:52:58;;;;;;;5.23;3.90;;;23.80;43.50;24.30;101032.00;;;;5002412;28;20729;-53
2023/06/16 08:55:25;;;;;;;5.33;3.87;;;23.80;42.70;24.30;101019.00;;;;5005143;28;20207;-54
2023/06/16 08:57:52;;;;;;;5.57;4.13;;;23.90;41.80;24.30;101027.00;;;;4988556;28;20332;-54
2023/06/16 09:00:18;;;;;;;3.97;3.57;;;23.90;41.90;24.30;101034.00;;;;5019186;28;20857;-54
2023/06/16 09:02:48;;;;;;;4.93;3.77;;;23.90;41.60;24.40;101019.00;;;;5011505;28;20179;-53
2023/06/16 09:05:15;;;;;;;3.60;3.30;;;23.90;41.10;24.40;101024.00;;;;5008977;28;20175;-54
2023/06/16 09:07:41;;;;;;;5.27;3.67;;;23.90;40.30;24.40;101020.00;;;;5026278;28;20187;-54
2023/06/16 09:10:07;;;;;;;4.10;3.60;;;23.90;40.00;24.40;101019.00;;;;5028670;28;20174;-54
2023/06/16 09:12:34;;;;;;;4.33;3.30;;;23.90;40.20;24.40;101019.00;;;;5027575;28;20175;-55
2023/06/16 09:15:01;;;;;;;4.23;3.93;;;24.00;40.50;24.40;100966.00;;;;5027476;28;20756;-54
2023/06/16 09:17:29;;;;;;;4.00;3.60;;;24.00;40.50;24.50;101022.00;;;;5027747;28;20206;-53
2023/06/16 09:19:55;;;;;;;4.10;3.80;;;23.90;39.90;24.50;101022.00;;;;5028799;28;20178;-54
2023/06/16 09:22:28;;;;;;;3.70;3.40;;;24.00;40.10;24.50;101027.00;;;;5028252;28;20163;-55
2023/06/16 09:24:57;;;;;;;4.23;3.83;;;24.00;40.00;24.50;101021.00;;;;5027461;28;20256;-54
2023/06/16 09:27:43;;;;;;;3.70;3.40;;;24.00;40.10;24.50;101028.00;;;;5028792;28;20358;-55
2023/06/16 09:30:10;;;;;;;3.93;3.63;;;24.00;40.10;24.50;101022.00;;;;5027982;28;20672;-53
2023/06/16 09:32:39;;;;;;;4.50;4.10;;;24.00;40.00;24.50;101021.00;;;;5028444;28;20198;-54
2023/06/16 09:35:21;;;;;;;4.57;4.17;;;24.00;39.90;24.60;101023.00;;;;5027359;28;20599;-54
2023/06/16 09:37:49;;;;;;;5.40;3.50;;;24.00;40.10;24.60;101022.00;;;;5025131;28;20206;-53
2023/06/16 09:40:15;;;;;;;4.00;3.60;;;24.10;40.10;24.60;101014.00;;;;5025489;28;20400;-54
2023/06/16 09:42:42;;;;;;;4.23;3.83;;;24.10;39.70;24.60;101012.00;;;;5027991;28;20179;-54
2023/06/16 09:45:12;;;;;;;4.33;3.93;;;24.10;39.50;24.60;101020.00;;;;4992786;28;20175;-54
2023/06/16 09:47:40;;;;;;;4.20;3.87;;;24.10;38.70;24.60;101008.00;;;;5026536;28;20266;-53
2023/06/16 09:50:07;;;;;;;3.80;3.50;;;24.10;37.40;24.60;101015.00;;;;5025814;28;20183;-54
2023/06/16 09:52:36;;;;;;;3.87;3.50;;;24.10;37.60;24.60;101013.00;;;;5007695;28;20183;-54
2023/06/16 09:55:02;;;;;;;3.67;3.40;;;24.10;38.00;24.60;101016.00;;;;5006545;28;20211;-53
2023/06/16 09:57:28;;;;;;;4.13;3.70;;;24.10;38.20;24.60;101018.00;;;;5006434;28;20204;-53
2023/06/16 09:59:54;;;;;;;3.90;3.50;;;24.20;38.10;24.60;100997.00;;;;5009351;28;20164;-54
2023/06/16 10:02:21;;;;;;;4.13;3.73;;;24.10;37.80;24.70;101021.00;;;;5044524;28;20179;-57
2023/06/16 10:04:47;;;;;;;3.90;3.60;;;24.20;37.60;24.70;101010.00;;;;5043998;28;20679;-54
2023/06/16 10:07:12;;;;;;;3.90;3.60;;;24.20;37.90;24.70;101007.00;;;;5045703;28;20195;-54
2023/06/16 10:09:41;;;;;;;4.00;3.60;;;24.20;37.50;24.70;101009.00;;;;5042446;28;20190;-53
2023/06/16 10:12:08;;;;;;;4.00;3.70;;;24.20;37.80;24.70;101003.00;;;;5051593;28;20711;-54
2023/06/16 10:14:34;;;;;;;4.10;3.77;;;24.20;37.60;24.80;100996.00;;;;5030579;28;20206;-53
2023/06/16 10:17:00;;;;;;;4.40;4.00;;;24.20;37.20;24.80;101003.00;;;;5048767;28;20234;-54
2023/06/16 10:19:26;;;;;;;4.00;3.70;;;24.20;36.90;24.80;100987.00;;;;5047585;28;20166;-53
2023/06/16 10:21:53;;;;;;;4.17;3.87;;;24.30;37.30;24.80;101008.00;;;;5049181;28;20178;-53
2023/06/16 10:24:19;;;;;;;4.13;3.77;;;24.30;37.20;24.80;101005.00;;;;5058604;28;20171;-54
2023/06/16 10:26:45;;;;;;;4.20;3.83;;;24.30;36.80;24.80;101004.00;;;;5037129;28;20713;-54
2023/06/16 10:29:16;;;;;;;4.17;3.87;;;24.30;36.80;24.90;101004.00;;;;5047953;28;20189;-54
2023/06/16 10:31:45;;;;;;;4.37;3.97;;;24.40;36.10;24.90;101000.00;;;;5046030;28;20559;-54
2023/06/16 10:34:18;;;;;;;4.50;4.10;;;24.30;36.00;24.90;100995.00;;;;5031083;28;20186;-53
2023/06/16 10:36:45;;;;;;;4.33;4.03;;;24.40;36.50;24.90;100985.00;;;;5030364;28;20211;-54
2023/06/16 10:39:13;;;;;;;4.30;4.00;;;24.30;36.90;24.90;100985.00;;;;5044736;28;20177;-55
2023/06/16 10:41:49;;;;;;;4.70;3.80;;;24.40;37.20;25.00;100989.00;;;;5005907;28;20249;-56
2023/06/16 10:44:29;;;;;;;5.70;3.80;;;24.40;36.90;25.00;100986.00;;;;5029980;28;20183;-54
2023/06/16 10:47:12;;;;;;;4.50;4.10;;;24.40;36.80;25.00;100984.00;;;;5028948;28;20290;-54